createdAt,value
2022-10-25T00:01:49.500Z,11.72
2022-10-25T00:04:32.593Z,11.56
2022-10-25T00:07:15.612Z,11.34
2022-10-25T00:09:58.637Z,11.22
2022-10-25T00:12:46.624Z,11.15
2022-10-25T00:15:29.692Z,11.20
2022-10-25T00:18:14.213Z,11.02
2022-10-25T00:20:57.371Z,11.05
2022-10-25T00:23:40.427Z,10.99
2022-10-25T00:26:23.749Z,10.89
2022-10-25T00:29:06.846Z,10.84
2022-10-25T00:31:49.938Z,10.80
2022-10-25T00:34:34.357Z,10.84
2022-10-25T00:37:17.495Z,10.80
2022-10-25T00:40:00.493Z,10.84
2022-10-25T00:42:43.826Z,10.82
2022-10-25T00:45:29.161Z,10.73
2022-10-25T00:48:13.695Z,10.76
2022-10-25T00:50:58.601Z,10.62
2022-10-25T00:53:42.893Z,10.66
2022-10-25T00:56:28.604Z,10.54
2022-10-25T00:59:15.906Z,10.55
2022-10-25T01:01:59.271Z,10.58
2022-10-25T01:04:42.759Z,10.57
2022-10-25T01:07:27.246Z,10.60
2022-10-25T01:10:10.636Z,10.47
2022-10-25T01:12:55.670Z,10.46
2022-10-25T01:15:47.406Z,10.49
2022-10-25T01:18:37.538Z,10.54
2022-10-25T01:21:46.415Z,10.46
2022-10-25T01:25:10.991Z,10.52
2022-10-25T01:28:05.538Z,10.49
2022-10-25T01:31:09.956Z,10.51
2022-10-25T01:33:58.957Z,10.50
2022-10-25T01:36:49.088Z,10.54
2022-10-25T01:39:36.489Z,10.55
2022-10-25T01:42:31.137Z,10.59
2022-10-25T01:45:20.876Z,10.60
2022-10-25T01:48:10.873Z,10.61
2022-10-25T01:50:54.152Z,10.58
2022-10-25T01:53:45.583Z,10.63
2022-10-25T01:56:32.523Z,10.57
2022-10-25T01:59:39.873Z,10.55
2022-10-25T02:02:29.179Z,10.48
2022-10-25T02:05:19.668Z,10.46
2022-10-25T02:08:10.059Z,10.41
2022-10-25T02:11:02.952Z,10.36
2022-10-25T02:13:59.339Z,10.37
2022-10-25T02:16:46.392Z,10.30
2022-10-25T02:19:33.071Z,10.33
2022-10-25T02:22:20.690Z,10.14
2022-10-25T02:25:05.049Z,10.21
2022-10-25T02:27:48.558Z,10.10
2022-10-25T02:30:35.079Z,10.13
2022-10-25T02:33:18.565Z,10.07
2022-10-25T02:36:10.431Z,10.10
2022-10-25T02:38:55.918Z,10.12
2022-10-25T02:41:39.020Z,10.09
2022-10-25T02:44:22.103Z,9.94
2022-10-25T02:47:05.212Z,10.02
2022-10-25T02:49:48.284Z,10.05
2022-10-25T02:52:31.573Z,10.06
2022-10-25T02:55:16.099Z,9.96
2022-10-25T02:58:00.019Z,10.02
2022-10-25T03:00:43.445Z,10.01
2022-10-25T03:03:27.230Z,10.00
2022-10-25T03:06:11.282Z,9.98
2022-10-25T03:08:56.115Z,10.01
2022-10-25T03:11:41.136Z,10.02
2022-10-25T03:14:24.189Z,9.90
2022-10-25T03:17:08.235Z,10.02
2022-10-25T03:19:51.357Z,9.98
2022-10-25T03:22:34.593Z,9.88
2022-10-25T03:25:17.811Z,9.87
2022-10-25T03:28:02.256Z,9.81
2022-10-25T03:30:45.409Z,9.78
2022-10-25T03:33:28.751Z,9.76
2022-10-25T03:36:12.055Z,9.70
2022-10-25T03:38:55.105Z,9.66
2022-10-25T03:41:38.180Z,9.56
2022-10-25T03:44:22.642Z,9.52
2022-10-25T03:47:05.770Z,9.49
2022-10-25T03:49:48.813Z,9.38
2022-10-25T03:52:31.953Z,9.33
2022-10-25T03:55:14.994Z,9.32
2022-10-25T03:57:58.035Z,9.08
2022-10-25T04:00:42.513Z,9.08
2022-10-25T04:03:25.595Z,8.97
2022-10-25T04:06:08.691Z,9.04
2022-10-25T04:08:51.705Z,8.99
2022-10-25T04:11:34.833Z,8.99
2022-10-25T04:14:17.930Z,9.06
2022-10-25T04:17:02.383Z,9.07
2022-10-25T04:19:45.444Z,9.10
2022-10-25T04:22:28.507Z,9.18
2022-10-25T04:25:11.644Z,9.19
2022-10-25T04:27:55.010Z,9.14
2022-10-25T04:30:38.878Z,9.20
2022-10-25T04:33:23.513Z,9.26
2022-10-25T04:36:07.155Z,9.20
2022-10-25T04:38:50.444Z,9.27
2022-10-25T04:41:33.581Z,9.33
2022-10-25T04:44:16.647Z,9.35
2022-10-25T04:46:59.681Z,9.31
2022-10-25T04:49:44.182Z,9.31
2022-10-25T04:52:27.181Z,9.36
2022-10-25T04:55:10.551Z,9.31
2022-10-25T04:57:53.650Z,9.20
2022-10-25T05:00:36.849Z,9.24
2022-10-25T05:03:20.028Z,9.16
2022-10-25T05:06:09.366Z,9.23
2022-10-25T05:08:53.036Z,9.36
2022-10-25T05:14:20.074Z,9.25
2022-10-25T05:17:03.188Z,9.46
2022-10-25T05:19:46.162Z,9.67
2022-10-25T05:22:30.650Z,9.82
2022-10-25T05:25:13.640Z,9.94
2022-10-25T05:27:56.681Z,10.15
2022-10-25T05:30:42.191Z,10.14
2022-10-25T05:33:25.341Z,10.29
2022-10-25T05:36:09.002Z,10.45
2022-10-25T05:38:53.733Z,10.52
2022-10-25T05:41:37.381Z,10.69
2022-10-25T05:44:20.634Z,10.97
2022-10-25T05:47:03.695Z,10.81
2022-10-25T05:49:46.711Z,11.21
2022-10-25T05:52:29.772Z,11.40
2022-10-25T05:55:14.528Z,11.79
2022-10-25T05:57:57.690Z,12.18
2022-10-25T06:00:40.713Z,12.43
2022-10-25T06:03:23.704Z,12.81
2022-10-25T06:06:09.507Z,13.67
2022-10-25T06:08:57.393Z,15.75
2022-10-25T06:11:42.083Z,17.52
2022-10-25T06:14:25.141Z,18.46
2022-10-25T06:17:08.270Z,20.17
2022-10-25T06:19:51.239Z,21.25
2022-10-25T06:22:34.353Z,21.91
2022-10-25T06:25:17.662Z,23.23
2022-10-25T06:28:02.071Z,25.31
2022-10-25T06:30:48.141Z,26.60
2022-10-25T06:33:31.442Z,27.29
2022-10-25T06:36:16.953Z,28.19
2022-10-25T06:39:05.456Z,30.23
2022-10-25T06:41:49.971Z,31.06
2022-10-25T06:44:34.545Z,32.62
2022-10-25T06:47:18.207Z,33.67
2022-10-25T06:50:01.539Z,32.82
2022-10-25T06:52:44.865Z,32.07
2022-10-25T06:55:28.124Z,31.63
2022-10-25T06:58:11.157Z,32.08
2022-10-25T07:00:55.757Z,31.71
2022-10-25T07:03:41.529Z,32.60
2022-10-25T07:06:26.602Z,34.61
2022-10-25T07:09:12.446Z,35.04
2022-10-25T07:11:55.555Z,36.04
2022-10-25T07:14:39.092Z,36.70
2022-10-25T07:17:23.542Z,38.25
2022-10-25T07:20:07.673Z,39.96
2022-10-25T07:22:50.812Z,36.73
2022-10-25T07:25:33.847Z,38.45
2022-10-25T07:28:16.949Z,35.46
2022-10-25T07:30:59.937Z,37.64
2022-10-25T07:33:44.421Z,36.77
2022-10-25T07:36:28.186Z,40.54
2022-10-25T07:39:11.311Z,42.17
2022-10-25T07:41:54.969Z,43.04
2022-10-25T07:44:38.054Z,41.57
2022-10-25T07:47:21.153Z,41.52
2022-10-25T07:50:06.119Z,39.19
2022-10-25T07:52:49.401Z,43.70
2022-10-25T07:55:32.442Z,41.31
2022-10-25T07:58:15.516Z,39.20
2022-10-25T08:01:03.158Z,40.98
2022-10-25T08:03:46.325Z,37.62
2022-10-25T08:06:30.802Z,40.75
2022-10-25T08:09:14.783Z,41.16
2022-10-25T08:12:09.694Z,40.71
2022-10-25T08:14:52.853Z,43.88
2022-10-25T08:17:35.935Z,44.95
2022-10-25T08:20:26.193Z,44.55
2022-10-25T08:23:25.413Z,45.53
2022-10-25T08:26:08.670Z,45.51
2022-10-25T08:28:52.653Z,42.82
2022-10-25T08:31:36.395Z,45.44
2022-10-25T08:34:19.502Z,44.24
2022-10-25T08:37:02.609Z,44.73
2022-10-25T08:39:47.126Z,45.31
2022-10-25T08:42:39.721Z,45.51
2022-10-25T08:45:30.014Z,42.70
2022-10-25T08:48:17.778Z,45.22
2022-10-25T08:51:05.369Z,41.00
2022-10-25T08:56:56.501Z,46.99
2022-10-25T08:59:43.803Z,47.61
2022-10-25T09:02:37.866Z,49.06
2022-10-25T09:05:35.360Z,50.56
2022-10-25T09:08:35.394Z,49.21
2022-10-25T09:11:33.367Z,50.96
2022-10-25T09:14:27.295Z,50.61
2022-10-25T09:17:19.771Z,46.43
2022-10-25T09:20:06.515Z,44.94
2022-10-25T09:22:51.830Z,41.19
2022-10-25T09:25:42.412Z,36.52
2022-10-25T09:28:33.402Z,32.09
2022-10-25T09:31:23.344Z,31.34
2022-10-25T09:34:10.312Z,29.72
2022-10-25T09:36:58.831Z,29.23
2022-10-25T09:40:14.425Z,29.37
2022-10-25T09:43:03.503Z,32.93
2022-10-25T09:45:57.310Z,34.67
2022-10-25T09:48:46.863Z,38.43
2022-10-25T09:51:37.369Z,39.77
2022-10-25T09:54:28.304Z,41.35
2022-10-25T09:57:11.453Z,42.30
2022-10-25T09:59:54.914Z,44.56
2022-10-25T10:02:38.292Z,45.07
2022-10-25T10:05:23.757Z,43.51
2022-10-25T10:08:07.210Z,42.33
2022-10-25T10:10:52.044Z,44.73
2022-10-25T10:13:41.660Z,45.21
2022-10-25T10:16:28.135Z,45.46
2022-10-25T10:19:18.355Z,45.78
2022-10-25T10:22:08.645Z,45.48
2022-10-25T10:25:02.078Z,45.55
2022-10-25T10:27:48.191Z,43.20
2022-10-25T10:30:32.759Z,42.10
2022-10-25T10:33:19.031Z,39.37
2022-10-25T10:36:23.574Z,40.39
2022-10-25T10:39:22.546Z,38.59
2022-10-25T10:42:16.854Z,38.93
2022-10-25T10:45:03.971Z,41.45
2022-10-25T10:47:58.073Z,43.12
2022-10-25T10:50:46.896Z,43.99
2022-10-25T10:53:33.033Z,43.52
2022-10-25T10:56:24.264Z,42.22
2022-10-25T10:59:07.402Z,40.41
2022-10-25T11:01:50.609Z,41.00
2022-10-25T11:04:53.903Z,43.37
2022-10-25T11:07:37.114Z,41.78
2022-10-25T11:10:24.782Z,42.99
2022-10-25T11:13:12.563Z,41.50
2022-10-25T11:16:29.111Z,44.49
2022-10-25T11:19:45.290Z,44.07
2022-10-25T11:22:49.173Z,44.91
2022-10-25T11:25:38.787Z,45.07
2022-10-25T11:28:38.734Z,39.89
2022-10-25T11:31:27.793Z,34.63
2022-10-25T11:34:23.859Z,33.69
2022-10-25T11:37:14.131Z,33.51
2022-10-25T11:40:07.980Z,32.65
2022-10-25T11:43:06.970Z,31.84
2022-10-25T11:46:02.890Z,31.36
2022-10-25T11:49:03.909Z,30.09
2022-10-25T11:52:01.172Z,29.72
2022-10-25T11:54:52.113Z,28.49
2022-10-25T11:57:46.593Z,28.48
2022-10-25T12:00:46.920Z,28.07
2022-10-25T12:03:49.691Z,27.77
2022-10-25T12:06:42.208Z,27.50
2022-10-25T12:09:34.686Z,26.98
2022-10-25T12:12:20.995Z,26.75
2022-10-25T12:15:07.183Z,26.41
2022-10-25T12:17:52.159Z,26.50
2022-10-25T12:20:38.338Z,26.30
2022-10-25T12:23:26.207Z,26.15
2022-10-25T12:26:23.912Z,26.20
2022-10-25T12:29:13.273Z,26.26
2022-10-25T12:31:59.970Z,26.21
2022-10-25T12:34:46.994Z,26.01
2022-10-25T12:37:38.739Z,26.00
2022-10-25T12:43:17.561Z,25.82
2022-10-25T12:46:22.016Z,25.56
2022-10-25T12:49:33.437Z,25.54
2022-10-25T12:52:30.411Z,25.45
2022-10-25T12:55:44.899Z,25.42
2022-10-25T12:58:50.333Z,25.27
2022-10-25T13:01:56.697Z,25.19
2022-10-25T13:04:59.272Z,25.12
2022-10-25T13:07:42.687Z,25.00
2022-10-25T13:10:27.900Z,24.96
2022-10-25T13:13:20.102Z,24.92
2022-10-25T13:16:05.881Z,24.87
2022-10-25T13:18:49.514Z,24.88
2022-10-25T13:22:07.833Z,24.84
2022-10-25T13:24:51.154Z,24.78
2022-10-25T13:27:37.321Z,24.73
2022-10-25T13:30:32.203Z,24.66
2022-10-25T13:33:34.705Z,24.57
2022-10-25T13:36:17.931Z,24.49
2022-10-25T13:39:05.368Z,24.47
2022-10-25T13:41:48.705Z,24.40
2022-10-25T13:44:33.358Z,24.31
2022-10-25T13:47:33.239Z,24.23
2022-10-25T13:50:20.107Z,24.20
2022-10-25T13:53:06.597Z,24.15
2022-10-25T13:55:59.023Z,24.10
2022-10-25T13:58:46.173Z,23.99
2022-10-25T14:02:09.154Z,23.95
2022-10-25T14:04:52.344Z,23.86
2022-10-25T14:07:52.903Z,23.84
2022-10-25T14:10:38.408Z,23.83
2022-10-25T14:13:30.491Z,23.77
2022-10-25T14:16:23.978Z,23.60
2022-10-25T14:19:16.264Z,23.45
2022-10-25T14:21:59.882Z,23.22
2022-10-25T14:24:45.417Z,23.20
2022-10-25T14:27:31.274Z,23.10
2022-10-25T14:30:22.157Z,23.13
2022-10-25T14:33:08.212Z,23.15
2022-10-25T14:35:54.714Z,23.15
2022-10-25T14:38:50.970Z,23.12
2022-10-25T14:41:36.252Z,22.98
2022-10-25T14:44:25.539Z,22.92
2022-10-25T14:47:28.740Z,22.88
2022-10-25T14:50:15.201Z,22.69
2022-10-25T14:53:01.160Z,22.73
2022-10-25T14:55:53.194Z,22.62
2022-10-25T14:58:42.746Z,22.48
2022-10-25T15:01:26.550Z,22.45
2022-10-25T15:04:09.742Z,22.40
2022-10-25T15:06:52.966Z,22.31
2022-10-25T15:09:48.813Z,22.26
2022-10-25T15:12:33.357Z,22.21
2022-10-25T15:15:33.626Z,22.16
2022-10-25T15:18:30.475Z,22.07
2022-10-25T15:21:17.559Z,21.94
2022-10-25T15:24:14.715Z,21.82
2022-10-25T15:27:01.920Z,21.69
2022-10-25T15:32:37.315Z,21.49
2022-10-25T15:35:27.692Z,21.44
2022-10-25T15:38:12.110Z,21.35
2022-10-25T15:40:55.171Z,21.22
2022-10-25T15:43:39.624Z,21.16
2022-10-25T15:46:29.821Z,20.93
2022-10-25T15:49:14.161Z,20.84
2022-10-25T15:51:57.267Z,20.70
2022-10-25T15:54:40.285Z,20.58
2022-10-25T15:57:23.500Z,20.34
2022-10-25T16:00:09.715Z,20.27
2022-10-25T16:02:53.470Z,20.15
2022-10-25T16:05:38.344Z,20.08
2022-10-25T16:08:21.661Z,20.03
2022-10-25T16:11:04.969Z,20.06
2022-10-25T16:13:53.722Z,20.11
2022-10-25T16:16:40.694Z,20.11
2022-10-25T16:19:26.406Z,20.04
2022-10-25T16:22:09.551Z,19.95
2022-10-25T16:24:52.794Z,19.82
2022-10-25T16:27:36.090Z,19.68
2022-10-25T16:30:20.601Z,19.66
2022-10-25T16:33:05.121Z,19.62
2022-10-25T16:35:48.100Z,19.56
2022-10-25T16:38:31.165Z,19.48
2022-10-25T16:41:24.298Z,19.51
2022-10-25T16:44:07.752Z,19.39
2022-10-25T16:46:50.880Z,19.33
2022-10-25T16:49:35.264Z,19.23
2022-10-25T16:52:19.357Z,19.19
2022-10-25T16:55:02.465Z,19.12
2022-10-25T16:57:45.623Z,19.12
2022-10-25T17:00:32.175Z,19.16
2022-10-25T17:03:15.221Z,19.14
2022-10-25T17:06:00.478Z,19.10
2022-10-25T17:08:47.985Z,19.09
2022-10-25T17:11:31.038Z,19.06
2022-10-25T17:14:14.867Z,19.02
2022-10-25T17:17:02.293Z,19.07
2022-10-25T17:19:46.562Z,19.02
2022-10-25T17:22:30.995Z,19.01
2022-10-25T17:25:14.156Z,19.00
2022-10-25T17:27:57.383Z,18.99
2022-10-25T17:30:43.121Z,19.01
2022-10-25T17:33:26.981Z,18.96
2022-10-25T17:36:12.212Z,18.93
2022-10-25T17:38:56.645Z,18.94
2022-10-25T17:41:39.698Z,18.95
2022-10-25T17:44:22.786Z,19.00
2022-10-25T17:47:05.888Z,18.98
2022-10-25T17:49:53.480Z,18.95
2022-10-25T17:52:41.254Z,18.87
2022-10-25T17:55:32.961Z,18.91
2022-10-25T17:58:16.925Z,18.89
2022-10-25T18:01:04.633Z,18.75
2022-10-25T18:03:48.206Z,18.77
2022-10-25T18:06:31.653Z,18.71
2022-10-25T18:09:14.694Z,18.74
2022-10-25T18:11:59.083Z,18.67
2022-10-25T18:14:42.183Z,18.55
2022-10-25T18:17:25.296Z,18.52
2022-10-25T18:20:09.655Z,18.35
2022-10-25T18:22:53.152Z,18.25
2022-10-25T18:25:40.556Z,18.08
2022-10-25T18:28:25.149Z,17.95
2022-10-25T18:31:09.837Z,17.82
2022-10-25T18:33:52.845Z,17.73
2022-10-25T18:36:35.882Z,17.73
2022-10-25T18:39:19.009Z,17.83
2022-10-25T18:42:02.085Z,17.84
2022-10-25T18:44:46.483Z,17.83
2022-10-25T18:47:29.485Z,17.77
2022-10-25T18:50:12.614Z,17.76
2022-10-25T18:52:55.744Z,17.81
2022-10-25T18:55:39.707Z,17.91
2022-10-25T18:58:22.942Z,17.92
2022-10-25T19:01:12.375Z,17.92
2022-10-25T19:03:57.295Z,17.71
2022-10-25T19:06:40.275Z,17.73
2022-10-25T19:09:24.309Z,17.77
2022-10-25T19:12:07.705Z,17.76
2022-10-25T19:14:50.792Z,17.72
2022-10-25T19:17:35.641Z,17.57
2022-10-25T19:20:19.289Z,17.71
2022-10-25T19:23:02.322Z,17.64
2022-10-25T19:25:45.675Z,17.68
2022-10-25T19:28:28.699Z,17.65
2022-10-25T19:31:16.714Z,17.66
2022-10-25T19:34:03.267Z,17.73
2022-10-25T19:36:46.375Z,17.72
2022-10-25T19:39:29.469Z,17.63
2022-10-25T19:42:12.879Z,17.66
2022-10-25T19:44:56.256Z,17.59
2022-10-25T19:47:40.453Z,17.62
2022-10-25T19:50:25.622Z,17.54
2022-10-25T19:53:08.768Z,17.49
2022-10-25T19:56:01.476Z,17.46
2022-10-25T19:58:44.886Z,17.41
2022-10-25T20:01:31.220Z,17.39
2022-10-25T20:04:14.856Z,17.39
2022-10-25T20:06:59.310Z,17.35
2022-10-25T20:09:42.406Z,17.23
2022-10-25T20:12:25.378Z,17.18
2022-10-25T20:15:09.272Z,17.09
2022-10-25T20:17:52.302Z,17.01
2022-10-25T20:20:36.296Z,16.91
2022-10-25T20:23:20.680Z,16.96
2022-10-25T20:26:12.173Z,16.89
2022-10-25T20:28:56.338Z,16.80
2022-10-25T20:31:39.342Z,16.90
2022-10-25T20:34:22.427Z,16.73
2022-10-25T20:37:06.174Z,16.68
2022-10-25T20:39:50.621Z,16.66
2022-10-25T20:42:33.665Z,16.65
2022-10-25T20:45:16.851Z,16.70
2022-10-25T20:48:00.866Z,16.64
2022-10-25T20:50:49.606Z,16.74
2022-10-25T20:53:32.673Z,16.67
2022-10-25T20:56:17.570Z,16.57
2022-10-25T20:59:00.547Z,16.53
2022-10-25T21:01:43.765Z,16.48
2022-10-25T21:04:42.327Z,16.42
2022-10-25T21:07:31.164Z,16.43
2022-10-25T21:10:14.457Z,16.40
2022-10-25T21:12:59.994Z,16.44
2022-10-25T21:15:46.598Z,16.42
2022-10-25T21:18:30.355Z,16.39
2022-10-25T21:21:19.326Z,16.33
2022-10-25T21:24:03.740Z,16.47
2022-10-25T21:26:47.591Z,16.48
2022-10-25T21:29:32.159Z,16.37
2022-10-25T21:32:15.790Z,16.26
2022-10-25T21:34:58.826Z,16.34
2022-10-25T21:37:44.315Z,16.30
2022-10-25T21:40:29.958Z,16.24
2022-10-25T21:43:13.980Z,16.10
2022-10-25T21:45:58.992Z,16.20
2022-10-25T21:48:43.829Z,16.14
2022-10-25T21:51:26.873Z,16.10
2022-10-25T21:54:09.902Z,16.13
2022-10-25T21:56:53.641Z,16.08
2022-10-25T21:59:36.649Z,16.25
2022-10-25T22:02:21.145Z,16.00
2022-10-25T22:05:04.510Z,16.00
2022-10-25T22:07:47.785Z,15.93
2022-10-25T22:10:31.094Z,15.97
2022-10-25T22:13:16.119Z,15.95
2022-10-25T22:16:01.322Z,15.80
2022-10-25T22:18:50.302Z,15.69
2022-10-25T22:21:35.299Z,15.70
2022-10-25T22:24:18.790Z,15.76
2022-10-25T22:27:01.819Z,15.80
2022-10-25T22:29:44.806Z,15.68
2022-10-25T22:32:27.810Z,15.64
2022-10-25T22:35:12.311Z,15.64
2022-10-25T22:37:55.349Z,15.64
2022-10-25T22:40:38.331Z,15.66
2022-10-25T22:43:21.296Z,15.58
2022-10-25T22:46:07.045Z,15.53
2022-10-25T22:48:50.335Z,15.51
2022-10-25T22:51:35.094Z,15.48
2022-10-25T22:54:18.118Z,15.56
2022-10-25T22:57:01.154Z,15.50
2022-10-25T22:59:44.161Z,15.51
2022-10-25T23:02:27.207Z,15.47
2022-10-25T23:05:10.628Z,15.43
2022-10-25T23:07:55.906Z,15.39
2022-10-25T23:10:38.962Z,15.33
2022-10-25T23:13:22.036Z,15.36
2022-10-25T23:16:05.470Z,15.38
2022-10-25T23:18:48.738Z,15.42
2022-10-25T23:21:31.915Z,15.41
2022-10-25T23:24:16.418Z,15.34
2022-10-25T23:26:59.477Z,15.30
2022-10-25T23:29:42.503Z,15.21
2022-10-25T23:32:25.491Z,15.23
2022-10-25T23:35:09.020Z,15.24
2022-10-25T23:37:52.205Z,15.19
2022-10-25T23:40:36.607Z,15.12
2022-10-25T23:43:19.738Z,15.10
2022-10-25T23:46:03.069Z,15.15
2022-10-25T23:48:46.127Z,15.13
2022-10-25T23:51:29.239Z,15.07
2022-10-25T23:54:12.244Z,15.07
2022-10-25T23:56:56.610Z,15.09
2022-10-25T23:59:39.663Z,15.06
